createdAt,value
2019-03-15T00:00:39.417Z,149115.92
2019-03-15T00:01:44.743Z,149119.09
2019-03-15T00:02:50.366Z,149094.39
2019-03-15T00:03:55.984Z,149069.73
2019-03-15T00:05:01.600Z,149090.62
2019-03-15T00:06:07.253Z,149078.59
2019-03-15T00:07:12.841Z,149073.56
2019-03-15T00:08:18.463Z,149077.31
2019-03-15T00:09:24.096Z,149119.69
2019-03-15T00:10:29.678Z,149098.22
2019-03-15T00:11:35.288Z,149091.27
2019-03-15T00:12:40.934Z,149096.30
2019-03-15T00:13:46.500Z,149105.16
2019-03-15T00:14:52.119Z,149139.31
2019-03-15T00:15:57.703Z,149123.50
2019-03-15T00:17:05.091Z,149127.31
2019-03-15T00:18:10.694Z,149121.59
2019-03-15T00:19:16.352Z,149107.06
2019-03-15T00:20:21.995Z,149134.28
2019-03-15T00:21:27.616Z,149126.69
2019-03-15T00:22:33.324Z,149146.89
2019-03-15T00:23:38.899Z,149130.45
2019-03-15T00:24:44.826Z,149125.41
2019-03-15T00:25:50.140Z,149151.34
2019-03-15T00:26:55.745Z,149163.34
2019-03-15T00:28:01.377Z,149153.25
2019-03-15T00:29:06.995Z,149114.02
2019-03-15T00:30:12.292Z,149087.44
2019-03-15T00:31:17.963Z,149114.66
2019-03-15T00:32:23.211Z,149110.25
2019-03-15T00:33:30.595Z,149076.09
2019-03-15T00:34:36.282Z,149072.28
2019-03-15T00:35:41.875Z,149095.67
2019-03-15T00:36:47.469Z,149106.44
2019-03-15T00:37:53.075Z,149123.50
2019-03-15T00:38:58.713Z,149114.66
2019-03-15T00:40:03.735Z,149114.02
2019-03-15T00:41:08.951Z,149145.63
2019-03-15T00:42:14.969Z,149139.31
2019-03-15T00:43:20.558Z,149132.36
2019-03-15T00:44:26.155Z,149107.70
2019-03-15T00:45:31.354Z,149096.30
2019-03-15T00:46:36.950Z,149091.91
2019-03-15T00:47:42.570Z,149114.02
2019-03-15T00:48:48.203Z,149107.06
2019-03-15T00:49:53.809Z,149116.56
2019-03-15T00:50:59.357Z,149169.69
2019-03-15T00:52:04.635Z,149161.47
2019-03-15T00:53:10.226Z,149170.28
2019-03-15T00:54:15.815Z,149180.41
2019-03-15T00:55:21.477Z,149174.73
2019-03-15T00:56:30.064Z,149177.92
2019-03-15T00:57:35.278Z,149163.97
2019-03-15T00:58:40.991Z,149170.92
2019-03-15T00:59:46.591Z,149163.34
2019-03-15T01:00:52.184Z,149163.97
2019-03-15T01:01:57.791Z,149162.06
2019-03-15T01:03:03.355Z,149160.20
2019-03-15T01:04:09.580Z,149138.67
2019-03-15T01:05:14.348Z,149110.25
2019-03-15T01:06:19.922Z,149099.48
2019-03-15T01:07:25.502Z,149102.63
2019-03-15T01:08:31.077Z,149139.94
2019-03-15T01:09:36.678Z,149182.95
2019-03-15T01:10:42.264Z,149220.94
2019-03-15T01:11:47.841Z,149217.13
2019-03-15T01:12:53.464Z,149193.09
2019-03-15T01:13:59.036Z,149158.30
2019-03-15T01:15:04.014Z,149186.14
2019-03-15T01:16:09.679Z,149191.19
2019-03-15T01:17:15.265Z,149185.50
2019-03-15T01:18:20.835Z,149221.53
2019-03-15T01:19:26.411Z,149217.75
2019-03-15T01:20:32.003Z,149189.91
2019-03-15T01:21:37.589Z,149196.22
2019-03-15T01:22:43.266Z,149189.91
2019-03-15T01:23:48.825Z,149198.12
2019-03-15T01:24:54.449Z,149195.00
2019-03-15T01:26:00.046Z,149195.63
2019-03-15T01:27:05.294Z,149222.80
2019-03-15T01:28:10.916Z,149197.50
2019-03-15T01:29:16.556Z,149212.08
2019-03-15T01:30:22.175Z,149207.63
2019-03-15T01:31:27.826Z,149213.30
2019-03-15T01:32:33.408Z,149208.89
2019-03-15T01:33:42.616Z,149215.22
2019-03-15T01:34:48.215Z,149227.25
2019-03-15T01:35:53.792Z,149222.80
2019-03-15T01:36:59.380Z,149252.56
2019-03-15T01:38:05.141Z,149217.13
2019-03-15T01:39:10.606Z,149201.95
2019-03-15T01:40:16.266Z,149234.84
2019-03-15T01:41:21.858Z,149241.16
2019-03-15T01:42:27.409Z,149232.92
2019-03-15T01:43:33.009Z,149184.23
2019-03-15T01:44:38.578Z,149148.81
2019-03-15T01:45:44.217Z,149173.47
2019-03-15T01:46:49.811Z,149184.86
2019-03-15T01:47:55.425Z,149188.62
2019-03-15T01:49:01.041Z,149203.22
2019-03-15T01:50:05.965Z,149216.48
2019-03-15T01:51:11.592Z,149232.92
2019-03-15T01:52:17.241Z,149223.44
2019-03-15T01:53:23.518Z,149213.30
2019-03-15T01:54:28.432Z,149172.83
2019-03-15T01:55:34.036Z,149179.78
2019-03-15T01:56:39.632Z,149213.94
2019-03-15T01:57:45.279Z,149205.72
2019-03-15T01:58:50.883Z,149200.03
2019-03-15T01:59:56.452Z,149224.06
2019-03-15T02:01:02.057Z,149231.66
2019-03-15T02:02:07.643Z,149217.75
2019-03-15T02:03:13.651Z,149226.61
2019-03-15T02:04:19.705Z,149207.63
2019-03-15T02:05:25.307Z,149170.92
2019-03-15T02:06:30.518Z,149197.50
2019-03-15T02:07:35.721Z,149206.34
2019-03-15T02:08:41.281Z,149219.66
2019-03-15T02:09:46.878Z,149190.55
2019-03-15T02:10:52.498Z,149186.78
2019-03-15T02:11:58.093Z,149210.81
2019-03-15T02:13:03.699Z,149171.56
2019-03-15T02:14:09.259Z,149203.86
2019-03-15T02:15:14.949Z,149214.58
2019-03-15T02:16:20.562Z,149230.38
2019-03-15T02:17:26.661Z,149209.53
2019-03-15T02:18:31.787Z,149206.98
2019-03-15T02:19:37.358Z,149214.58
2019-03-15T02:20:42.996Z,149181.69
2019-03-15T02:21:48.616Z,149179.14
2019-03-15T02:22:54.195Z,149170.28
2019-03-15T02:23:59.792Z,149210.81
2019-03-15T02:25:04.729Z,149204.44
2019-03-15T02:26:10.305Z,149206.34
2019-03-15T02:27:15.860Z,149212.66
2019-03-15T02:28:21.467Z,149215.84
2019-03-15T02:29:27.005Z,149215.22
2019-03-15T02:30:32.241Z,149193.09
2019-03-15T02:31:37.822Z,149171.56
2019-03-15T02:32:43.434Z,149198.12
2019-03-15T02:33:49.024Z,149211.44
2019-03-15T02:34:54.583Z,149217.13
2019-03-15T02:36:00.221Z,149235.47
2019-03-15T02:37:06.876Z,149225.34
2019-03-15T02:38:11.081Z,149181.05
2019-03-15T02:39:16.683Z,149190.55
2019-03-15T02:40:22.337Z,149217.13
2019-03-15T02:41:27.991Z,149231.66
2019-03-15T02:42:33.607Z,149231.66
2019-03-15T02:43:39.218Z,149221.53
2019-03-15T02:44:44.830Z,149212.66
2019-03-15T02:45:50.460Z,149184.86
2019-03-15T02:46:56.043Z,149225.98
2019-03-15T02:48:01.615Z,149219.03
2019-03-15T02:49:08.242Z,149237.38
2019-03-15T02:50:12.918Z,149248.73
2019-03-15T02:51:18.510Z,149242.42
2019-03-15T02:52:25.030Z,149225.98
2019-03-15T02:53:30.677Z,149219.66
2019-03-15T02:54:36.257Z,149216.48
2019-03-15T02:55:41.841Z,149242.42
2019-03-15T02:56:47.528Z,149224.70
2019-03-15T02:57:53.139Z,149217.75
2019-03-15T02:58:58.757Z,149234.84
2019-03-15T03:00:03.660Z,149233.56
2019-03-15T03:01:09.258Z,149252.56
2019-03-15T03:02:14.833Z,149248.09
2019-03-15T03:03:20.815Z,149247.47
2019-03-15T03:04:26.117Z,149247.47
2019-03-15T03:05:31.687Z,149255.69
2019-03-15T03:06:38.233Z,149232.28
2019-03-15T03:07:43.796Z,149197.50
2019-03-15T03:08:49.366Z,149198.77
2019-03-15T03:09:54.961Z,149232.28
2019-03-15T03:11:00.559Z,149246.25
2019-03-15T03:12:06.246Z,149201.95
2019-03-15T03:13:12.205Z,149211.44
2019-03-15T03:14:17.857Z,149210.17
2019-03-15T03:15:24.510Z,149201.31
2019-03-15T03:16:29.085Z,149197.50
2019-03-15T03:17:34.656Z,149236.75
2019-03-15T03:18:40.263Z,149220.94
2019-03-15T03:19:45.833Z,149208.89
2019-03-15T03:20:51.439Z,149179.14
2019-03-15T03:21:57.047Z,149171.56
2019-03-15T03:23:04.028Z,149141.84
2019-03-15T03:24:08.364Z,149146.25
2019-03-15T03:25:13.920Z,149116.56
2019-03-15T03:26:19.584Z,149094.39
2019-03-15T03:27:25.166Z,149108.97
2019-03-15T03:28:30.728Z,149118.47
2019-03-15T03:29:36.301Z,149093.81
2019-03-15T03:30:41.925Z,149095.03
2019-03-15T03:31:47.581Z,149067.25
2019-03-15T03:32:53.149Z,149088.08
2019-03-15T03:33:58.759Z,149114.66
2019-03-15T03:35:03.746Z,149117.83
2019-03-15T03:36:09.362Z,149112.73
2019-03-15T03:37:14.960Z,149116.56
2019-03-15T03:38:20.522Z,149110.25
2019-03-15T03:39:27.159Z,149077.95
2019-03-15T03:40:32.717Z,149091.27
2019-03-15T03:41:37.993Z,149095.03
2019-03-15T03:42:43.589Z,149119.69
2019-03-15T03:43:49.229Z,149119.69
2019-03-15T03:44:54.933Z,149141.22
2019-03-15T03:46:00.544Z,149117.83
2019-03-15T03:47:06.217Z,149116.56
2019-03-15T03:48:11.822Z,149124.78
2019-03-15T03:49:17.438Z,149119.09
2019-03-15T03:50:23.032Z,149131.72
2019-03-15T03:51:28.657Z,149133.00
2019-03-15T03:52:34.274Z,149096.94
2019-03-15T03:53:40.061Z,149091.27
2019-03-15T03:54:45.635Z,149092.53
2019-03-15T03:55:51.606Z,149098.22
2019-03-15T03:56:55.804Z,149114.66
2019-03-15T03:58:00.668Z,149101.39
2019-03-15T03:59:05.999Z,149102.03
2019-03-15T04:00:12.586Z,149115.28
2019-03-15T04:01:17.523Z,149063.44
2019-03-15T04:02:23.550Z,149069.73
2019-03-15T04:03:29.164Z,149066.61
2019-03-15T04:04:34.403Z,149077.95
2019-03-15T04:05:40.009Z,149084.31
2019-03-15T04:06:45.294Z,149093.17
2019-03-15T04:07:54.295Z,149106.44
2019-03-15T04:08:59.859Z,149093.81
2019-03-15T04:10:05.788Z,149084.95
2019-03-15T04:11:11.353Z,149114.02
2019-03-15T04:12:17.143Z,149139.94
2019-03-15T04:13:23.877Z,149116.56
2019-03-15T04:14:29.524Z,149092.53
2019-03-15T04:15:35.844Z,149090.62
2019-03-15T04:16:41.502Z,149098.84
2019-03-15T04:17:47.208Z,149093.81
2019-03-15T04:18:52.752Z,149093.81
2019-03-15T04:19:58.348Z,149074.83
2019-03-15T04:21:03.527Z,149065.97
2019-03-15T04:22:09.144Z,149099.48
2019-03-15T04:23:14.773Z,149098.84
2019-03-15T04:24:20.331Z,149105.80
2019-03-15T04:25:25.956Z,149101.39
2019-03-15T04:26:31.562Z,149114.66
2019-03-15T04:27:37.255Z,149117.83
2019-03-15T04:28:42.898Z,149110.88
2019-03-15T04:29:48.514Z,149105.80
2019-03-15T04:30:54.139Z,149108.34
2019-03-15T04:31:59.910Z,149136.19
2019-03-15T04:33:05.538Z,149130.45
2019-03-15T04:34:11.173Z,149127.91
2019-03-15T04:35:16.756Z,149129.81
2019-03-15T04:36:22.352Z,149130.45
2019-03-15T04:37:28.013Z,149149.44
2019-03-15T04:38:33.611Z,149112.11
2019-03-15T04:39:39.216Z,149100.12
2019-03-15T04:40:44.885Z,149144.41
2019-03-15T04:41:50.478Z,149143.77
2019-03-15T04:42:56.159Z,149139.31
2019-03-15T04:44:01.750Z,149153.25
2019-03-15T04:45:06.635Z,149141.84
2019-03-15T04:46:12.195Z,149150.08
2019-03-15T04:47:17.808Z,149129.81
2019-03-15T04:48:23.382Z,149102.63
2019-03-15T04:49:28.933Z,149096.94
2019-03-15T04:50:34.573Z,149110.88
2019-03-15T04:51:40.167Z,149115.28
2019-03-15T04:52:46.848Z,149103.25
2019-03-15T04:53:52.520Z,149124.14
2019-03-15T04:54:58.143Z,149103.89
2019-03-15T04:56:03.748Z,149112.11
2019-03-15T04:57:09.390Z,149103.89
2019-03-15T04:58:14.970Z,149119.69
2019-03-15T04:59:23.778Z,149146.25
2019-03-15T05:00:26.183Z,149140.58
2019-03-15T05:01:31.760Z,149109.61
2019-03-15T05:02:37.359Z,149095.03
2019-03-15T05:03:43.001Z,149112.11
2019-03-15T05:04:48.584Z,149114.02
2019-03-15T05:06:03.036Z,149114.02
2019-03-15T05:06:59.902Z,149115.92
2019-03-15T05:08:05.540Z,149083.69
2019-03-15T05:09:11.125Z,149084.95
2019-03-15T05:10:16.677Z,149086.81
2019-03-15T05:11:23.951Z,149092.53
2019-03-15T05:12:29.608Z,149082.41
2019-03-15T05:13:34.874Z,149088.08
2019-03-15T05:14:40.512Z,149122.23
2019-03-15T05:15:46.107Z,149093.81
2019-03-15T05:16:51.701Z,149086.17
2019-03-15T05:17:57.298Z,149089.98
2019-03-15T05:19:02.892Z,149098.22
2019-03-15T05:20:07.779Z,149096.30
2019-03-15T05:21:13.437Z,149079.88
2019-03-15T05:22:19.075Z,149068.52
2019-03-15T05:23:24.707Z,149097.58
2019-03-15T05:24:30.313Z,149117.83
2019-03-15T05:25:35.885Z,149089.36
2019-03-15T05:26:41.451Z,149083.69
2019-03-15T05:27:47.072Z,149056.48
2019-03-15T05:28:52.359Z,149051.44
2019-03-15T05:29:57.974Z,149046.36
2019-03-15T05:31:03.219Z,149010.31
2019-03-15T05:32:08.811Z,148997.06
2019-03-15T05:33:14.472Z,148976.17
2019-03-15T05:34:20.072Z,148985.66
2019-03-15T05:35:25.288Z,149006.53
2019-03-15T05:36:30.859Z,149003.36
2019-03-15T05:37:36.722Z,149019.80
2019-03-15T05:38:42.336Z,149009.08
2019-03-15T05:39:47.900Z,149005.27
2019-03-15T05:40:52.809Z,149003.36
2019-03-15T05:41:58.391Z,148990.11
2019-03-15T05:43:04.016Z,148995.16
2019-03-15T05:44:09.590Z,149034.37
2019-03-15T05:45:15.432Z,148969.86
2019-03-15T05:46:21.868Z,149004.00
2019-03-15T05:47:27.530Z,148997.06
2019-03-15T05:48:33.156Z,149015.39
2019-03-15T05:49:38.770Z,149048.91
2019-03-15T05:50:44.330Z,149035.59
2019-03-15T05:51:49.916Z,149040.69
2019-03-15T05:52:55.537Z,149064.70
2019-03-15T05:54:01.115Z,149045.72
2019-03-15T05:55:09.178Z,149026.16
2019-03-15T05:56:14.863Z,149019.16
2019-03-15T05:57:20.404Z,149017.31
2019-03-15T05:58:26.003Z,149016.67
2019-03-15T05:59:31.607Z,149027.37
2019-03-15T06:00:37.232Z,149027.37
2019-03-15T06:01:42.840Z,149027.37
2019-03-15T06:02:48.058Z,149056.48
2019-03-15T06:03:53.706Z,149041.31
2019-03-15T06:04:59.258Z,149066.61
2019-03-15T06:06:04.556Z,149054.58
2019-03-15T06:07:10.150Z,149085.59
2019-03-15T06:08:15.772Z,149077.31
2019-03-15T06:09:21.360Z,149084.31
2019-03-15T06:10:26.948Z,149092.53
2019-03-15T06:11:32.610Z,149070.38
2019-03-15T06:12:37.832Z,149084.31
2019-03-15T06:13:43.493Z,149105.16
2019-03-15T06:14:49.151Z,149120.97
2019-03-15T06:15:54.804Z,149116.56
2019-03-15T06:17:00.494Z,149141.84
2019-03-15T06:18:06.875Z,149133.64
2019-03-15T06:19:11.893Z,149155.75
2019-03-15T06:20:17.156Z,149153.84
2019-03-15T06:21:22.716Z,149172.19
2019-03-15T06:22:28.297Z,149166.52
2019-03-15T06:23:33.907Z,149177.92
2019-03-15T06:24:39.568Z,149189.91
2019-03-15T06:25:45.188Z,149195.63
2019-03-15T06:26:50.787Z,149203.22
2019-03-15T06:27:56.392Z,149193.09
2019-03-15T06:29:02.029Z,149198.77
2019-03-15T06:30:14.772Z,149210.81
2019-03-15T06:31:20.429Z,149228.53
2019-03-15T06:32:25.998Z,149223.44
2019-03-15T06:33:34.857Z,149240.52
2019-03-15T06:34:40.465Z,149257.59
2019-03-15T06:35:46.130Z,149260.14
2019-03-15T06:36:51.704Z,149256.95
2019-03-15T06:38:01.066Z,149285.45
2019-03-15T06:39:06.076Z,149281.63
2019-03-15T06:40:13.510Z,149290.50
2019-03-15T06:41:17.072Z,149294.94
2019-03-15T06:42:22.690Z,149313.31
2019-03-15T06:43:28.332Z,149337.34
2019-03-15T06:44:37.239Z,149353.80
2019-03-15T06:45:41.848Z,149360.11
2019-03-15T06:46:45.218Z,149403.16
2019-03-15T06:47:50.883Z,149405.70
2019-03-15T06:48:56.567Z,149393.02
2019-03-15T06:50:02.159Z,149396.20
2019-03-15T06:51:09.404Z,149408.20
2019-03-15T06:52:14.560Z,149410.75
2019-03-15T06:53:20.172Z,149417.70
2019-03-15T06:54:25.787Z,149403.16
2019-03-15T06:55:31.344Z,149410.11
2019-03-15T06:56:36.947Z,149448.11
2019-03-15T06:57:42.582Z,149450.61
2019-03-15T06:58:48.190Z,149444.30
2019-03-15T06:59:53.813Z,149452.53
2019-03-15T07:00:59.412Z,149449.39
2019-03-15T07:02:04.998Z,149442.38
2019-03-15T07:03:10.629Z,149410.75
2019-03-15T07:04:16.242Z,149417.70
2019-03-15T07:05:21.825Z,149412.66
2019-03-15T07:06:27.451Z,149433.52
2019-03-15T07:07:33.062Z,149394.94
2019-03-15T07:08:45.152Z,149384.78
2019-03-15T07:09:50.783Z,149404.42
2019-03-15T07:10:56.387Z,149406.97
2019-03-15T07:12:09.371Z,149359.47
2019-03-15T07:13:07.663Z,149363.30
2019-03-15T07:14:13.255Z,149355.06
2019-03-15T07:15:18.854Z,149405.70
2019-03-15T07:16:24.509Z,149440.53
2019-03-15T07:17:30.093Z,149394.94
2019-03-15T07:18:35.778Z,149365.80
2019-03-15T07:19:41.388Z,149374.02
2019-03-15T07:20:47.053Z,149368.34
2019-03-15T07:21:52.684Z,149381.66
2019-03-15T07:22:58.396Z,149424.06
2019-03-15T07:24:04.067Z,149435.44
2019-03-15T07:25:09.168Z,149449.97
2019-03-15T07:26:14.757Z,149441.75
2019-03-15T07:27:20.357Z,149399.97
2019-03-15T07:28:25.953Z,149416.42
2019-03-15T07:29:31.579Z,149386.06
2019-03-15T07:30:37.268Z,149393.02
2019-03-15T07:31:42.965Z,149387.97
2019-03-15T07:32:47.870Z,149394.94
2019-03-15T07:33:53.464Z,149397.47
2019-03-15T07:35:03.010Z,149404.42
2019-03-15T07:36:08.593Z,149422.16
2019-03-15T07:37:14.193Z,149427.84
2019-03-15T07:38:19.814Z,149429.75
2019-03-15T07:39:26.692Z,149418.34
2019-03-15T07:40:31.086Z,149434.16
2019-03-15T07:41:36.350Z,149421.52
2019-03-15T07:42:41.970Z,149416.42
2019-03-15T07:43:47.556Z,149445.56
2019-03-15T07:44:53.183Z,149419.61
2019-03-15T07:45:58.813Z,149437.97
2019-03-15T07:47:05.390Z,149406.97
2019-03-15T07:48:21.836Z,149410.75
2019-03-15T07:49:16.732Z,149406.97
2019-03-15T07:50:22.314Z,149418.97
2019-03-15T07:51:27.200Z,149403.16
2019-03-15T07:52:32.792Z,149401.25
2019-03-15T07:53:38.374Z,149400.61
2019-03-15T07:54:43.996Z,149395.56
2019-03-15T07:55:49.632Z,149426.56
2019-03-15T07:56:55.228Z,149430.39
2019-03-15T07:58:00.793Z,149453.16
2019-03-15T07:59:06.385Z,149407.56
2019-03-15T08:00:13.138Z,149443.66
2019-03-15T08:01:18.689Z,149421.52
2019-03-15T08:02:24.255Z,149424.66
2019-03-15T08:03:29.837Z,149419.61
2019-03-15T08:04:36.070Z,149416.42
2019-03-15T08:05:41.181Z,149434.80
2019-03-15T08:06:46.827Z,149418.97
2019-03-15T08:07:53.082Z,149421.52
2019-03-15T08:08:58.108Z,149430.39
2019-03-15T08:10:03.011Z,149446.84
2019-03-15T08:11:07.943Z,149427.84
2019-03-15T08:12:13.587Z,149427.20
2019-03-15T08:13:19.225Z,149407.56
2019-03-15T08:14:24.895Z,149420.88
2019-03-15T08:15:30.517Z,149432.88
2019-03-15T08:16:36.152Z,149452.53
2019-03-15T08:17:41.427Z,149442.38
2019-03-15T08:18:47.053Z,149468.98
2019-03-15T08:19:52.678Z,149431.66
2019-03-15T08:20:58.305Z,149425.30
2019-03-15T08:22:03.546Z,149443.02
2019-03-15T08:23:09.209Z,149457.63
2019-03-15T08:24:14.838Z,149492.39
2019-03-15T08:25:20.451Z,149470.25
2019-03-15T08:26:26.030Z,149477.84
2019-03-15T08:27:31.651Z,149515.22
2019-03-15T08:28:37.310Z,149510.77
2019-03-15T08:29:43.929Z,149510.12
2019-03-15T08:30:49.588Z,149512.67
2019-03-15T08:31:55.227Z,149524.09
2019-03-15T08:33:10.028Z,149552.59
2019-03-15T08:34:06.485Z,149548.83
2019-03-15T08:35:11.395Z,149544.38
2019-03-15T08:36:20.134Z,149552.59
2019-03-15T08:37:22.615Z,149545.66
2019-03-15T08:38:28.195Z,149557.06
2019-03-15T08:39:33.802Z,149561.47
2019-03-15T08:40:39.514Z,149598.86
2019-03-15T08:41:44.839Z,149592.53
2019-03-15T08:42:50.486Z,149589.98
2019-03-15T08:43:56.057Z,149585.53
2019-03-15T08:45:01.725Z,149589.34
2019-03-15T08:46:07.177Z,149578.56
2019-03-15T08:47:12.835Z,149589.98
2019-03-15T08:48:18.488Z,149587.44
2019-03-15T08:49:24.099Z,149584.31
2019-03-15T08:50:29.825Z,149610.86
2019-03-15T08:51:35.377Z,149614.69
2019-03-15T08:52:42.155Z,149643.84
2019-03-15T08:53:46.188Z,149637.47
2019-03-15T08:55:04.207Z,149622.92
2019-03-15T08:55:57.490Z,149616.59
2019-03-15T08:57:03.208Z,149604.55
2019-03-15T08:58:14.376Z,149629.88
2019-03-15T08:59:14.363Z,149641.30
2019-03-15T09:00:19.275Z,149672.31
2019-03-15T09:01:24.856Z,149690.70
2019-03-15T09:02:30.642Z,149685.66
2019-03-15T09:03:36.275Z,149713.50
2019-03-15T09:04:41.892Z,149711.00
2019-03-15T09:05:47.562Z,149716.05
2019-03-15T09:06:53.182Z,149700.84
2019-03-15T09:07:58.797Z,149705.27
2019-03-15T09:09:03.435Z,149756.59
2019-03-15T09:10:21.938Z,149768.66
2019-03-15T09:11:14.302Z,149784.48
2019-03-15T09:12:19.918Z,149759.78
2019-03-15T09:13:25.552Z,149763.56
2019-03-15T09:14:31.213Z,149726.83
2019-03-15T09:15:36.836Z,149724.92
2019-03-15T09:16:42.441Z,149716.69
2019-03-15T09:17:48.087Z,149719.23
2019-03-15T09:18:55.458Z,149736.34
2019-03-15T09:19:59.397Z,149726.83
2019-03-15T09:21:05.061Z,149727.47
2019-03-15T09:22:10.654Z,149736.34
2019-03-15T09:23:16.365Z,149776.25
2019-03-15T09:24:21.956Z,149800.33
2019-03-15T09:25:27.263Z,149797.19
2019-03-15T09:26:32.889Z,149776.25
2019-03-15T09:27:38.460Z,149771.84
2019-03-15T09:28:44.076Z,149811.11
2019-03-15T09:29:49.731Z,149825.03
2019-03-15T09:30:55.405Z,149827.59
2019-03-15T09:32:06.341Z,149833.28
2019-03-15T09:33:06.874Z,149817.44
2019-03-15T09:34:12.529Z,149813.03
2019-03-15T09:35:18.194Z,149829.50
2019-03-15T09:36:23.506Z,149856.77
2019-03-15T09:37:29.208Z,149843.42
2019-03-15T09:38:34.779Z,149844.06
2019-03-15T09:39:40.339Z,149877.66
2019-03-15T09:40:46.105Z,149877.03
2019-03-15T09:41:51.848Z,149879.58
2019-03-15T09:42:59.882Z,149832.00
2019-03-15T09:44:02.664Z,149813.03
2019-03-15T09:45:13.723Z,149854.22
2019-03-15T09:46:19.340Z,149845.98
2019-03-15T09:47:25.508Z,149819.98
2019-03-15T09:48:31.066Z,149799.05
2019-03-15T09:49:36.697Z,149828.22
2019-03-15T09:50:51.259Z,149869.42
2019-03-15T09:51:47.959Z,149883.34
2019-03-15T09:52:53.575Z,149909.98
2019-03-15T09:53:59.230Z,149920.14
2019-03-15T09:55:04.175Z,149952.47
2019-03-15T09:56:09.824Z,149962.63
2019-03-15T09:57:15.423Z,149942.95
2019-03-15T09:58:20.998Z,149949.97
2019-03-15T09:59:26.666Z,149909.98
2019-03-15T10:00:32.276Z,149927.09
2019-03-15T10:01:38.624Z,149913.17
2019-03-15T10:02:43.792Z,149914.45
2019-03-15T10:03:49.392Z,149889.72
2019-03-15T10:04:55.061Z,149897.33
2019-03-15T10:06:13.990Z,149872.61
2019-03-15T10:07:06.510Z,149865.00
2019-03-15T10:08:12.147Z,149891.59
2019-03-15T10:09:17.826Z,149862.45
2019-03-15T10:10:23.440Z,149851.67
2019-03-15T10:11:29.151Z,149852.31
2019-03-15T10:12:34.787Z,149840.87
2019-03-15T10:13:40.404Z,149796.55
2019-03-15T10:14:46.055Z,149792.72
2019-03-15T10:15:55.413Z,149781.30
2019-03-15T10:16:57.810Z,149765.47
2019-03-15T10:18:03.552Z,149774.97
2019-03-15T10:19:09.213Z,149734.44
2019-03-15T10:20:14.109Z,149750.27
2019-03-15T10:21:19.723Z,149762.97
2019-03-15T10:22:25.310Z,149753.45
2019-03-15T10:23:30.918Z,149721.73
2019-03-15T10:24:36.502Z,149696.39
2019-03-15T10:25:47.044Z,149695.75
2019-03-15T10:26:47.855Z,149697.03
2019-03-15T10:27:53.486Z,149723.64
2019-03-15T10:28:59.121Z,149724.92
2019-03-15T10:30:04.871Z,149690.06
2019-03-15T10:31:10.294Z,149694.53
2019-03-15T10:32:15.944Z,149675.50
2019-03-15T10:33:21.586Z,149697.03
2019-03-15T10:34:27.187Z,149697.67
2019-03-15T10:35:32.825Z,149732.52
2019-03-15T10:36:38.593Z,149758.50
2019-03-15T10:37:44.099Z,149749.63
2019-03-15T10:38:49.782Z,149740.75
2019-03-15T10:39:55.383Z,149732.52
2019-03-15T10:41:01.394Z,149711.63
2019-03-15T10:42:06.702Z,149731.25
2019-03-15T10:43:12.300Z,149763.56
2019-03-15T10:44:17.891Z,149766.09
2019-03-15T10:45:23.671Z,149768.66
2019-03-15T10:46:29.409Z,149734.44
2019-03-15T10:47:35.330Z,149735.70
2019-03-15T10:48:41.932Z,149737.62
2019-03-15T10:49:47.519Z,149726.19
2019-03-15T10:50:53.140Z,149737.62
2019-03-15T10:51:58.776Z,149747.08
2019-03-15T10:53:04.513Z,149773.06
2019-03-15T10:54:10.157Z,149752.81
2019-03-15T10:55:15.468Z,149708.44
2019-03-15T10:56:20.763Z,149712.86
2019-03-15T10:57:26.399Z,149736.98
2019-03-15T10:58:32.019Z,149722.37
2019-03-15T10:59:37.699Z,149697.67
2019-03-15T11:00:43.253Z,149716.05
2019-03-15T11:01:48.857Z,149701.48
2019-03-15T11:02:54.454Z,149729.97
2019-03-15T11:04:00.047Z,149749.63
2019-03-15T11:05:04.783Z,149773.70
2019-03-15T11:06:10.479Z,149742.03
2019-03-15T11:07:15.871Z,149731.25
2019-03-15T11:08:24.105Z,149750.27
2019-03-15T11:09:27.045Z,149752.17
2019-03-15T11:10:32.666Z,149747.08
2019-03-15T11:11:38.309Z,149724.92
2019-03-15T11:12:43.970Z,149707.81
2019-03-15T11:13:49.761Z,149711.00
2019-03-15T11:14:55.435Z,149697.67
2019-03-15T11:16:00.701Z,149733.80
2019-03-15T11:17:06.313Z,149719.88
2019-03-15T11:18:11.997Z,149697.67
2019-03-15T11:19:17.645Z,149694.53
2019-03-15T11:20:23.261Z,149697.03
2019-03-15T11:21:28.890Z,149696.39
2019-03-15T11:22:34.509Z,149702.77
2019-03-15T11:23:40.128Z,149695.75
2019-03-15T11:24:45.761Z,149681.19
2019-03-15T11:25:51.390Z,149720.50
2019-03-15T11:26:57.031Z,149688.16
2019-03-15T11:28:02.629Z,149712.86
2019-03-15T11:29:08.293Z,149707.17
2019-03-15T11:30:13.199Z,149729.97
2019-03-15T11:31:18.433Z,149751.53
2019-03-15T11:32:24.069Z,149773.70
2019-03-15T11:33:29.651Z,149774.34
2019-03-15T11:34:35.239Z,149756.59
2019-03-15T11:35:40.838Z,149781.30
2019-03-15T11:36:57.908Z,149773.70
2019-03-15T11:37:52.146Z,149766.09
2019-03-15T11:38:57.725Z,149780.08
2019-03-15T11:40:02.961Z,149790.17
2019-03-15T11:41:08.616Z,149769.92
2019-03-15T11:42:15.078Z,149759.14
2019-03-15T11:43:19.828Z,149750.27
2019-03-15T11:44:25.399Z,149729.38
2019-03-15T11:45:30.976Z,149722.37
2019-03-15T11:46:36.638Z,149752.81
2019-03-15T11:48:01.230Z,149759.14
2019-03-15T11:48:48.105Z,149764.83
2019-03-15T11:49:53.727Z,149749.63
2019-03-15T11:50:59.015Z,149717.95
2019-03-15T11:52:03.970Z,149742.03
2019-03-15T11:53:09.601Z,149761.05
2019-03-15T11:54:15.327Z,149750.91
2019-03-15T11:55:20.857Z,149759.14
2019-03-15T11:56:27.386Z,149731.87
2019-03-15T11:57:32.162Z,149737.62
2019-03-15T11:58:37.844Z,149735.70
2019-03-15T11:59:43.452Z,149736.98
2019-03-15T12:00:49.087Z,149765.47
2019-03-15T12:02:04.041Z,149776.25
2019-03-15T12:03:00.355Z,149747.72
2019-03-15T12:04:05.978Z,149711.63
2019-03-15T12:05:10.953Z,149727.47
2019-03-15T12:06:16.592Z,149745.22
2019-03-15T12:07:22.246Z,149753.45
2019-03-15T12:08:27.892Z,149744.58
2019-03-15T12:09:33.520Z,149727.47
2019-03-15T12:10:39.124Z,149736.34
2019-03-15T12:11:44.764Z,149757.86
2019-03-15T12:12:50.384Z,149764.83
2019-03-15T12:13:55.626Z,149745.22
2019-03-15T12:15:01.229Z,149736.98
2019-03-15T12:16:06.836Z,149766.09
2019-03-15T12:17:12.424Z,149754.72
2019-03-15T12:18:18.200Z,149756.59
2019-03-15T12:19:23.793Z,149778.80
2019-03-15T12:20:29.380Z,149779.44
2019-03-15T12:21:34.983Z,149757.22
2019-03-15T12:22:40.284Z,149781.94
2019-03-15T12:23:45.887Z,149778.16
2019-03-15T12:24:51.479Z,149769.28
2019-03-15T12:25:57.146Z,149751.53
2019-03-15T12:27:02.756Z,149740.75
2019-03-15T12:28:08.439Z,149714.13
2019-03-15T12:29:14.043Z,149745.84